Time;durP1;ratioP1;P1;durP2;ratioP2;P2;SDS_P1;SDS_P2;PMS_P1;PMS_P2;Temp;Humidity;BMP_temperature;BMP_pressure;BME280_temperature;BME280_humidity;BME280_pressure;Samples;Min_cycle;Max_cycle;Signal;HPM_P1;HPM_P2
2022/06/24 00:00:11;;;;;;;14.25;6.55;;;;;;;;;;4995562;28;20056;-69
2022/06/24 00:02:38;;;;;;;14.50;6.55;;;;;;;;;;5011734;28;20030;-68
2022/06/24 00:05:11;;;;;;;13.63;6.97;;;;;;;;;;4993273;28;20061;-69
2022/06/24 00:07:45;;;;;;;10.90;6.20;;;;;;;;;;4992904;28;20069;-68
2022/06/24 00:10:19;;;;;;;10.65;6.85;;;;;;;;;;4998862;28;20101;-69
2022/06/24 00:12:46;;;;;;;10.75;6.78;;;;;;;;;;5011943;28;20485;-69
2022/06/24 00:15:12;;;;;;;8.90;6.57;;;;;;;;;;5026297;28;20420;-68
2022/06/24 00:17:37;;;;;;;12.25;6.85;;;;;;;;;;5021618;28;20037;-67
2022/06/24 00:20:06;;;;;;;10.05;7.00;;;;;;;;;;5012120;28;20026;-67
2022/06/24 00:22:42;;;;;;;11.38;7.20;;;;;;;;;;5011772;28;20049;-67
2022/06/24 00:25:17;;;;;;;11.68;7.88;;;;;;;;;;5011932;28;20038;-67
2022/06/24 00:27:58;;;;;;;14.45;7.57;;;;;;;;;;5011405;28;20173;-68
2022/06/24 00:30:24;;;;;;;12.57;7.70;;;;;;;;;;5012153;28;20030;-67
2022/06/24 00:32:50;;;;;;;15.23;7.38;;;;;;;;;;5010930;28;20029;-69
2022/06/24 00:35:17;;;;;;;12.98;7.38;;;;;;;;;;4995347;28;20043;-67
2022/06/24 00:37:45;;;;;;;9.90;7.35;;;;;;;;;;5010693;28;20052;-70
2022/06/24 00:40:11;;;;;;;11.27;7.80;;;;;;;;;;5005392;28;20046;-67
2022/06/24 00:42:47;;;;;;;19.75;8.05;;;;;;;;;;4992175;28;20405;-68
2022/06/24 00:45:27;;;;;;;13.82;8.27;;;;;;;;;;5007065;28;20037;-69
2022/06/24 00:47:56;;;;;;;11.63;7.70;;;;;;;;;;4992283;28;20414;-69
2022/06/24 00:50:28;;;;;;;12.55;7.82;;;;;;;;;;5007102;28;20026;-68
2022/06/24 00:52:57;;;;;;;17.98;8.15;;;;;;;;;;5011690;28;20038;-69
2022/06/24 00:55:36;;;;;;;16.83;8.10;;;;;;;;;;4995208;28;20051;-68
2022/06/24 00:58:04;;;;;;;12.02;8.38;;;;;;;;;;4992119;28;20144;-67
2022/06/24 01:00:33;;;;;;;13.75;8.88;;;;;;;;;;4991982;28;20131;-68
2022/06/24 01:03:03;;;;;;;13.63;8.02;;;;;;;;;;4992010;28;20038;-68
2022/06/24 01:05:31;;;;;;;18.90;8.35;;;;;;;;;;4992319;28;20485;-68
2022/06/24 01:07:58;;;;;;;15.50;8.45;;;;;;;;;;4994855;28;20041;-68
2022/06/24 01:10:25;;;;;;;13.40;8.13;;;;;;;;;;4992026;28;20045;-70
2022/06/24 01:12:52;;;;;;;16.55;8.10;;;;;;;;;;4992052;28;20104;-67
2022/06/24 01:15:18;;;;;;;15.25;7.78;;;;;;;;;;4991408;28;20038;-69
2022/06/24 01:17:43;;;;;;;18.02;8.60;;;;;;;;;;5020750;28;20030;-71
2022/06/24 01:20:11;;;;;;;16.20;8.07;;;;;;;;;;5020724;28;20026;-69
2022/06/24 01:22:38;;;;;;;11.88;7.75;;;;;;;;;;5011299;28;20380;-68
2022/06/24 01:25:05;;;;;;;12.65;7.65;;;;;;;;;;4992167;28;20045;-68
2022/06/24 01:27:31;;;;;;;12.80;8.10;;;;;;;;;;4992751;28;20109;-67
2022/06/24 01:29:56;;;;;;;15.85;8.38;;;;;;;;;;4991515;28;20364;-67
2022/06/24 01:32:22;;;;;;;14.40;8.43;;;;;;;;;;5008922;28;20022;-70
2022/06/24 01:34:48;;;;;;;13.45;7.72;;;;;;;;;;4996032;28;20046;-67
2022/06/24 01:37:14;;;;;;;19.55;8.30;;;;;;;;;;4992102;28;20528;-69
2022/06/24 01:39:40;;;;;;;15.27;7.95;;;;;;;;;;4991706;28;20034;-67
2022/06/24 01:42:07;;;;;;;13.55;7.93;;;;;;;;;;4991231;28;20361;-67
2022/06/24 01:44:33;;;;;;;12.38;7.53;;;;;;;;;;4991666;28;20436;-70
2022/06/24 01:46:59;;;;;;;15.18;8.10;;;;;;;;;;4993021;28;20018;-68
2022/06/24 01:49:25;;;;;;;17.02;8.43;;;;;;;;;;4995343;28;20038;-67
2022/06/24 01:51:53;;;;;;;15.18;7.75;;;;;;;;;;4995223;28;20101;-68
2022/06/24 01:54:19;;;;;;;17.52;9.50;;;;;;;;;;4995440;28;20034;-68
2022/06/24 01:56:45;;;;;;;14.02;8.38;;;;;;;;;;5003128;28;20362;-68
2022/06/24 01:59:12;;;;;;;13.57;8.30;;;;;;;;;;5014853;28;20109;-68
2022/06/24 02:01:38;;;;;;;16.45;8.07;;;;;;;;;;5014515;28;20034;-68
2022/06/24 02:04:04;;;;;;;18.38;8.82;;;;;;;;;;5013634;28;20087;-67
2022/06/24 02:06:30;;;;;;;12.88;7.97;;;;;;;;;;5013486;28;20025;-66
2022/06/24 02:08:56;;;;;;;13.45;8.05;;;;;;;;;;5013972;28;20037;-68
2022/06/24 02:14:11;;;;;;;14.68;9.00;;;;;;;;;;5002965;28;20074;-68
2022/06/24 02:16:38;;;;;;;18.42;8.88;;;;;;;;;;5000571;28;20073;-67
2022/06/24 02:19:05;;;;;;;17.42;8.70;;;;;;;;;;4994933;28;20019;-68
2022/06/24 02:21:32;;;;;;;17.15;9.30;;;;;;;;;;4994716;28;20186;-67
2022/06/24 02:23:58;;;;;;;17.02;8.40;;;;;;;;;;4994158;28;20045;-69
2022/06/24 02:26:25;;;;;;;16.25;9.07;;;;;;;;;;5009281;28;20393;-68
2022/06/24 02:28:51;;;;;;;20.58;8.80;;;;;;;;;;5006061;28;20022;-73
2022/06/24 02:31:17;;;;;;;17.00;9.18;;;;;;;;;;4993735;28;20042;-69
2022/06/24 02:33:44;;;;;;;15.40;8.77;;;;;;;;;;4994221;28;20053;-69
2022/06/24 02:36:09;;;;;;;16.15;8.55;;;;;;;;;;4994420;28;20433;-67
2022/06/24 02:38:36;;;;;;;15.40;8.40;;;;;;;;;;4994432;28;20120;-73
2022/06/24 02:41:03;;;;;;;17.65;9.32;;;;;;;;;;4994180;28;20038;-74
2022/06/24 02:43:31;;;;;;;20.20;9.23;;;;;;;;;;4994094;28;20037;-68
2022/06/24 02:45:59;;;;;;;17.55;9.02;;;;;;;;;;4994173;28;20485;-72
2022/06/24 02:48:25;;;;;;;20.88;10.18;;;;;;;;;;4994356;28;20041;-68
2022/06/24 02:51:00;;;;;;;14.60;8.38;;;;;;;;;;4994246;28;20549;-67
2022/06/24 02:53:27;;;;;;;22.92;7.75;;;;;;;;;;4993862;28;20038;-68
2022/06/24 02:55:54;;;;;;;17.13;8.20;;;;;;;;;;4993863;28;20053;-69
2022/06/24 02:58:20;;;;;;;13.95;7.75;;;;;;;;;;4993389;28;20129;-73
2022/06/24 03:00:46;;;;;;;11.88;7.63;;;;;;;;;;4997114;28;20077;-72
2022/06/24 03:03:15;;;;;;;15.65;7.97;;;;;;;;;;5013119;28;20030;-69
2022/06/24 03:05:41;;;;;;;15.38;7.45;;;;;;;;;;4998093;28;20024;-69
2022/06/24 03:08:09;;;;;;;13.50;7.30;;;;;;;;;;4993231;28;20120;-72
2022/06/24 03:10:35;;;;;;;15.88;6.97;;;;;;;;;;4993106;28;20049;-69
2022/06/24 03:13:01;;;;;;;14.98;7.07;;;;;;;;;;5007290;28;20441;-74
2022/06/24 03:15:27;;;;;;;15.82;7.47;;;;;;;;;;5012357;28;20104;-70
2022/06/24 03:17:53;;;;;;;17.98;6.90;;;;;;;;;;5012127;28;20073;-74
2022/06/24 03:20:20;;;;;;;17.92;7.47;;;;;;;;;;5012437;28;20072;-74
2022/06/24 03:22:46;;;;;;;15.75;7.30;;;;;;;;;;5012603;28;20404;-74
2022/06/24 03:25:12;;;;;;;14.63;6.95;;;;;;;;;;5011975;28;20026;-72
2022/06/24 03:27:38;;;;;;;17.48;7.00;;;;;;;;;;4999470;28;20030;-71
2022/06/24 03:30:06;;;;;;;15.90;6.95;;;;;;;;;;4995268;28;20373;-75
2022/06/24 03:32:32;;;;;;;12.35;6.80;;;;;;;;;;4999373;28;20100;-72
2022/06/24 03:34:58;;;;;;;19.98;7.28;;;;;;;;;;4992344;28;20047;-71
2022/06/24 03:37:24;;;;;;;13.55;6.88;;;;;;;;;;4992181;28;20058;-71
2022/06/24 03:39:50;;;;;;;15.68;7.57;;;;;;;;;;4992406;28;20478;-71
2022/06/24 03:42:16;;;;;;;19.35;7.65;;;;;;;;;;4992506;28;20030;-72
2022/06/24 03:44:41;;;;;;;19.08;7.05;;;;;;;;;;4992526;28;20033;-73
2022/06/24 03:47:07;;;;;;;18.10;8.00;;;;;;;;;;4992258;28;20113;-68
2022/06/24 03:49:33;;;;;;;16.52;6.85;;;;;;;;;;4992041;28;20459;-69
2022/06/24 03:51:59;;;;;;;24.05;6.50;;;;;;;;;;4992383;28;20038;-76
2022/06/24 03:54:25;;;;;;;14.15;6.20;;;;;;;;;;5009623;28;20028;-73
2022/06/24 03:56:51;;;;;;;12.68;6.63;;;;;;;;;;5010928;28;20037;-70
2022/06/24 03:59:17;;;;;;;14.15;6.60;;;;;;;;;;5012313;28;20029;-71
2022/06/24 04:01:43;;;;;;;13.88;6.50;;;;;;;;;;5012154;28;20401;-70
2022/06/24 04:04:09;;;;;;;17.98;7.22;;;;;;;;;;5011792;28;20030;-69
2022/06/24 04:06:35;;;;;;;12.82;6.63;;;;;;;;;;5011776;28;20041;-73
2022/06/24 04:09:01;;;;;;;15.07;6.72;;;;;;;;;;5011171;28;20026;-70
2022/06/24 04:11:27;;;;;;;15.07;6.35;;;;;;;;;;5010944;28;20477;-69
2022/06/24 04:13:53;;;;;;;13.35;7.18;;;;;;;;;;5011823;28;20040;-69
2022/06/24 04:16:20;;;;;;;19.40;6.85;;;;;;;;;;5011777;28;20034;-73
2022/06/24 04:18:47;;;;;;;17.90;6.97;;;;;;;;;;5011644;28;20052;-69
2022/06/24 04:21:18;;;;;;;13.30;6.85;;;;;;;;;;5004002;28;20552;-70
2022/06/24 04:23:45;;;;;;;17.30;7.18;;;;;;;;;;4992043;28;20473;-69
2022/06/24 04:26:12;;;;;;;18.08;7.90;;;;;;;;;;4992110;28;20022;-69
2022/06/24 04:28:38;;;;;;;16.13;7.43;;;;;;;;;;4992175;28;20031;-70
2022/06/24 04:31:05;;;;;;;11.98;7.10;;;;;;;;;;4993153;28;20029;-72
2022/06/24 04:33:31;;;;;;;12.77;6.95;;;;;;;;;;5011122;28;20046;-71
2022/06/24 04:35:57;;;;;;;14.35;7.47;;;;;;;;;;5011714;28;20499;-70
2022/06/24 04:38:23;;;;;;;20.65;7.95;;;;;;;;;;5011492;28;20393;-71
2022/06/24 04:40:49;;;;;;;14.25;7.63;;;;;;;;;;4999843;28;20061;-71
2022/06/24 04:43:15;;;;;;;16.50;7.20;;;;;;;;;;4991753;28;20077;-70
2022/06/24 04:45:44;;;;;;;15.20;7.72;;;;;;;;;;4990015;28;20109;-71
2022/06/24 04:48:10;;;;;;;19.45;7.72;;;;;;;;;;4990289;28;20037;-70
2022/06/24 04:50:36;;;;;;;16.88;7.50;;;;;;;;;;5004584;28;20025;-70
2022/06/24 04:53:03;;;;;;;22.00;7.88;;;;;;;;;;5011073;28;20109;-72
2022/06/24 04:55:29;;;;;;;19.92;6.60;;;;;;;;;;5012293;28;20080;-70
2022/06/24 04:57:55;;;;;;;18.23;7.32;;;;;;;;;;5012625;28;20074;-71
2022/06/24 05:00:21;;;;;;;17.98;7.00;;;;;;;;;;5012339;28;20045;-71
2022/06/24 05:02:48;;;;;;;14.57;7.68;;;;;;;;;;5012143;28;20030;-73
2022/06/24 05:05:14;;;;;;;16.30;7.95;;;;;;;;;;5012734;28;20412;-70
2022/06/24 05:07:40;;;;;;;12.73;7.10;;;;;;;;;;5012340;28;20022;-70
2022/06/24 05:10:07;;;;;;;15.48;7.55;;;;;;;;;;5011618;28;20026;-70
2022/06/24 05:12:34;;;;;;;16.55;7.45;;;;;;;;;;5011234;28;20038;-69
2022/06/24 05:15:00;;;;;;;18.30;6.38;;;;;;;;;;5011654;28;20030;-70
2022/06/24 05:17:26;;;;;;;16.00;6.38;;;;;;;;;;5012250;28;20042;-69
2022/06/24 05:19:52;;;;;;;17.10;7.63;;;;;;;;;;5012312;28;20024;-70
2022/06/24 05:22:18;;;;;;;15.43;6.18;;;;;;;;;;5015432;28;20026;-71
2022/06/24 05:24:44;;;;;;;15.65;6.93;;;;;;;;;;5013636;28;20107;-69
2022/06/24 05:27:10;;;;;;;14.05;6.65;;;;;;;;;;5004654;28;20473;-71
2022/06/24 05:29:36;;;;;;;17.42;6.78;;;;;;;;;;4994855;28;20027;-68
2022/06/24 05:32:02;;;;;;;15.68;6.80;;;;;;;;;;4995970;28;20037;-71
2022/06/24 05:34:28;;;;;;;26.00;7.18;;;;;;;;;;4996032;28;20510;-70
2022/06/24 05:36:54;;;;;;;21.05;7.40;;;;;;;;;;5003001;28;20042;-69
2022/06/24 05:39:21;;;;;;;16.60;7.13;;;;;;;;;;5013039;28;20022;-70
2022/06/24 05:41:47;;;;;;;15.07;6.07;;;;;;;;;;5012042;28;20454;-72
2022/06/24 05:44:13;;;;;;;10.98;5.97;;;;;;;;;;5011889;28;20037;-67
2022/06/24 05:46:40;;;;;;;12.98;6.95;;;;;;;;;;4996296;28;20102;-69
2022/06/24 05:49:06;;;;;;;12.45;6.18;;;;;;;;;;4995188;28;20031;-70
2022/06/24 05:51:35;;;;;;;13.52;5.93;;;;;;;;;;4999342;28;20389;-72
2022/06/24 05:56:45;;;;;;;13.02;5.80;;;;;;;;;;4997919;28;20061;-72
2022/06/24 05:59:11;;;;;;;17.30;6.35;;;;;;;;;;5012160;28;20021;-73
2022/06/24 06:01:37;;;;;;;12.77;6.40;;;;;;;;;;5013148;28;20117;-73
2022/06/24 06:04:03;;;;;;;15.95;6.35;;;;;;;;;;5013043;28;20062;-74
2022/06/24 06:06:29;;;;;;;15.88;5.88;;;;;;;;;;4996776;28;20046;-73
2022/06/24 06:08:57;;;;;;;20.48;6.50;;;;;;;;;;4994440;28;20076;-73
2022/06/24 06:11:24;;;;;;;12.52;6.10;;;;;;;;;;5006352;28;20129;-73
2022/06/24 06:13:52;;;;;;;17.52;6.53;;;;;;;;;;5013536;28;20076;-74
2022/06/24 06:16:19;;;;;;;14.63;5.60;;;;;;;;;;5013951;28;20037;-76
2022/06/24 06:18:45;;;;;;;12.13;6.05;;;;;;;;;;5013726;28;20025;-74
2022/06/24 06:21:12;;;;;;;17.95;6.15;;;;;;;;;;5013491;28;20026;-75
2022/06/24 06:23:42;;;;;;;14.75;6.13;;;;;;;;;;5011465;28;20080;-77
2022/06/24 06:26:09;;;;;;;11.70;6.38;;;;;;;;;;4999661;28;20079;-74
2022/06/24 06:28:35;;;;;;;14.57;6.60;;;;;;;;;;5001988;28;20022;-77
2022/06/24 06:31:02;;;;;;;14.70;6.40;;;;;;;;;;5003154;28;20046;-77
2022/06/24 06:33:31;;;;;;;19.50;7.10;;;;;;;;;;4993885;28;20047;-77
2022/06/24 06:36:08;;;;;;;11.48;5.88;;;;;;;;;;4994701;28;20035;-73
2022/06/24 06:38:34;;;;;;;12.50;6.28;;;;;;;;;;5002546;28;20117;-76
2022/06/24 06:41:01;;;;;;;15.07;6.65;;;;;;;;;;4998956;28;20026;-74
2022/06/24 06:43:27;;;;;;;15.13;6.60;;;;;;;;;;5033181;28;20042;-75
2022/06/24 06:45:53;;;;;;;12.43;6.05;;;;;;;;;;5019561;28;20491;-75
2022/06/24 06:48:20;;;;;;;11.10;6.15;;;;;;;;;;5000599;28;20185;-72
2022/06/24 06:50:46;;;;;;;14.45;6.05;;;;;;;;;;4994777;28;20128;-75
2022/06/24 06:53:12;;;;;;;10.23;5.80;;;;;;;;;;5004382;28;20063;-74
2022/06/24 06:55:38;;;;;;;9.75;6.18;;;;;;;;;;4994235;28;20115;-74
2022/06/24 06:58:04;;;;;;;14.25;6.15;;;;;;;;;;4994228;28;20506;-74
2022/06/24 07:00:30;;;;;;;15.30;6.22;;;;;;;;;;5012095;28;20531;-75
2022/06/24 07:02:56;;;;;;;10.38;6.25;;;;;;;;;;5030779;28;20128;-74
2022/06/24 07:05:22;;;;;;;11.07;6.57;;;;;;;;;;5014014;28;20117;-73
2022/06/24 07:07:48;;;;;;;15.18;6.57;;;;;;;;;;5013155;28;20087;-74
2022/06/24 07:10:14;;;;;;;20.38;6.60;;;;;;;;;;4997100;28;20425;-77
2022/06/24 07:12:40;;;;;;;13.93;7.13;;;;;;;;;;5008574;28;20112;-73
2022/06/24 07:15:06;;;;;;;15.57;6.90;;;;;;;;;;5004429;28;20050;-72
2022/06/24 07:17:32;;;;;;;14.43;6.88;;;;;;;;;;5009307;28;20037;-72
2022/06/24 07:19:58;;;;;;;20.25;7.32;;;;;;;;;;5023243;28;20030;-74
2022/06/24 07:22:24;;;;;;;16.10;6.97;;;;;;;;;;5011724;28;20034;-73
2022/06/24 07:24:50;;;;;;;14.60;6.97;;;;;;;;;;5011734;28;20108;-75
2022/06/24 07:27:15;;;;;;;17.42;8.13;;;;;;;;;;5022192;28;20029;-75
2022/06/24 07:29:41;;;;;;;15.43;6.78;;;;;;;;;;5013051;28;20054;-75
2022/06/24 07:32:07;;;;;;;13.77;7.30;;;;;;;;;;5012804;28;20354;-76
2022/06/24 07:34:35;;;;;;;13.57;6.70;;;;;;;;;;5026733;28;20133;-77
2022/06/24 07:37:02;;;;;;;12.82;7.22;;;;;;;;;;5026186;28;20116;-77
2022/06/24 07:39:30;;;;;;;14.45;7.78;;;;;;;;;;5031279;28;20454;-77
2022/06/24 07:41:57;;;;;;;15.52;8.18;;;;;;;;;;5032790;28;20080;-76
2022/06/24 07:44:23;;;;;;;16.17;7.63;;;;;;;;;;5032800;28;20093;-78
2022/06/24 07:46:49;;;;;;;12.57;7.55;;;;;;;;;;5032224;28;20037;-78
2022/06/24 07:49:16;;;;;;;12.68;7.50;;;;;;;;;;5032481;28;20465;-77
2022/06/24 07:51:42;;;;;;;11.80;6.85;;;;;;;;;;5032503;28;20120;-77
2022/06/24 07:54:08;;;;;;;15.35;7.22;;;;;;;;;;5023479;28;20025;-75
2022/06/24 07:59:20;;;;;;;15.88;8.20;;;;;;;;;;5012284;28;20062;-80
2022/06/24 08:01:45;;;;;;;14.20;7.53;;;;;;;;;;5012809;28;20057;-78
2022/06/24 08:04:11;;;;;;;11.35;7.50;;;;;;;;;;5012657;28;20041;-78
2022/06/24 08:06:40;;;;;;;13.52;6.97;;;;;;;;;;5011855;28;20404;-76
2022/06/24 08:09:07;;;;;;;14.13;6.85;;;;;;;;;;5012633;28;20501;-77
2022/06/24 08:11:33;;;;;;;14.13;7.50;;;;;;;;;;5012109;28;20026;-77
2022/06/24 08:13:59;;;;;;;23.33;7.90;;;;;;;;;;5012676;28;20038;-76
2022/06/24 08:16:25;;;;;;;19.88;7.78;;;;;;;;;;5015350;28;20033;-73
2022/06/24 08:18:52;;;;;;;11.68;7.50;;;;;;;;;;5015575;28;20523;-75
2022/06/24 08:21:19;;;;;;;18.45;8.23;;;;;;;;;;5012225;28;20098;-78
2022/06/24 08:23:45;;;;;;;14.02;7.95;;;;;;;;;;5011866;28;20048;-76
2022/06/24 08:26:10;;;;;;;12.25;7.03;;;;;;;;;;5012409;28;20026;-75
2022/06/24 08:28:36;;;;;;;14.80;7.85;;;;;;;;;;5012566;28;20022;-73
2022/06/24 08:31:02;;;;;;;13.95;7.65;;;;;;;;;;5012306;28;20381;-77
2022/06/24 08:33:28;;;;;;;12.27;6.32;;;;;;;;;;5012476;28;20121;-77
2022/06/24 08:35:54;;;;;;;14.35;6.20;;;;;;;;;;5010862;28;20034;-77
2022/06/24 08:38:20;;;;;;;17.58;7.03;;;;;;;;;;5012140;28;20041;-76
2022/06/24 08:40:50;;;;;;;12.05;7.15;;;;;;;;;;5012375;28;20022;-77
2022/06/24 08:43:17;;;;;;;13.95;6.63;;;;;;;;;;5011656;28;20072;-80
2022/06/24 08:45:43;;;;;;;15.93;6.95;;;;;;;;;;5011031;28;20117;-79
2022/06/24 08:48:10;;;;;;;11.73;7.15;;;;;;;;;;5012417;28;20108;-77
2022/06/24 08:50:36;;;;;;;22.77;7.30;;;;;;;;;;5011691;28;20026;-72
2022/06/24 08:53:06;;;;;;;9.52;6.70;;;;;;;;;;5012832;28;20038;-79
2022/06/24 08:55:39;;;;;;;16.30;6.82;;;;;;;;;;5013402;28;20104;-80
2022/06/24 08:58:11;;;;;;;14.13;7.15;;;;;;;;;;5016470;28;20527;-78
2022/06/24 09:00:38;;;;;;;13.73;7.13;;;;;;;;;;5013889;28;20029;-80
2022/06/24 09:03:04;;;;;;;16.60;7.32;;;;;;;;;;5036019;28;20488;-78
2022/06/24 09:05:31;;;;;;;13.57;7.18;;;;;;;;;;5035767;28;20483;-78
2022/06/24 09:08:17;;;;;;;12.82;6.78;;;;;;;;;;5036286;28;20595;-75
2022/06/24 09:11:06;;;;;;;12.43;6.65;;;;;;;;;;5018082;28;20041;-72
2022/06/24 09:13:32;;;;;;;17.42;7.88;;;;;;;;;;4997432;28;20045;-77
2022/06/24 09:16:06;;;;;;;14.02;6.85;;;;;;;;;;4996549;28;20450;-73
2022/06/24 09:18:32;;;;;;;14.98;7.38;;;;;;;;;;5002115;28;20034;-76
2022/06/24 09:20:57;;;;;;;12.05;6.80;;;;;;;;;;5010065;28;20092;-76
2022/06/24 09:23:24;;;;;;;12.63;7.05;;;;;;;;;;5007221;28;20091;-77
2022/06/24 09:25:53;;;;;;;11.63;5.93;;;;;;;;;;5008023;28;20025;-73
2022/06/24 09:28:30;;;;;;;12.65;6.63;;;;;;;;;;4995323;28;20030;-73
2022/06/24 09:31:08;;;;;;;11.98;6.28;;;;;;;;;;4995183;28;20034;-76
2022/06/24 09:33:42;;;;;;;11.25;6.45;;;;;;;;;;4999242;28;20149;-75
2022/06/24 09:36:10;;;;;;;12.13;6.88;;;;;;;;;;4995019;28;20050;-77
2022/06/24 09:38:55;;;;;;;15.20;5.88;;;;;;;;;;5006625;28;20026;-78
2022/06/24 09:41:23;;;;;;;17.60;6.18;;;;;;;;;;4997602;28;20065;-77
2022/06/24 09:43:53;;;;;;;13.57;6.60;;;;;;;;;;5008544;28;20040;-77
2022/06/24 09:46:21;;;;;;;11.45;6.78;;;;;;;;;;4997413;28;20034;-77
2022/06/24 09:48:47;;;;;;;9.68;6.55;;;;;;;;;;5003687;28;20026;-76
2022/06/24 09:51:17;;;;;;;10.43;5.65;;;;;;;;;;4994984;28;20041;-77
2022/06/24 09:53:43;;;;;;;10.65;6.20;;;;;;;;;;5002545;28;20034;-75
2022/06/24 09:56:10;;;;;;;11.68;5.72;;;;;;;;;;4998575;28;20203;-82
2022/06/24 10:03:59;;;;;;;14.27;5.65;;;;;;;;;;5011802;28;20153;-76
2022/06/24 10:06:27;;;;;;;12.60;6.00;;;;;;;;;;5010893;28;20549;-76
2022/06/24 10:08:54;;;;;;;10.15;5.68;;;;;;;;;;5005322;28;20034;-79
2022/06/24 10:11:20;;;;;;;10.10;4.80;;;;;;;;;;4993237;28;20026;-78
2022/06/24 10:13:46;;;;;;;11.48;5.43;;;;;;;;;;4994513;28;20026;-79
2022/06/24 10:16:11;;;;;;;7.70;4.22;;;;;;;;;;4994100;28;20080;-76
2022/06/24 10:18:41;;;;;;;10.88;4.60;;;;;;;;;;4994214;28;20366;-73
2022/06/24 10:21:10;;;;;;;13.48;4.40;;;;;;;;;;4994082;28;20034;-72
2022/06/24 10:23:44;;;;;;;6.70;3.85;;;;;;;;;;4990144;28;20034;-77
2022/06/24 10:26:31;;;;;;;8.52;4.40;;;;;;;;;;4994228;28;20175;-79
2022/06/24 10:29:03;;;;;;;9.32;4.18;;;;;;;;;;4993369;28;20038;-72
2022/06/24 10:31:55;;;;;;;14.00;4.30;;;;;;;;;;4989662;28;20061;-75
2022/06/24 10:36:58;;;;;;;8.80;4.20;;;;;;;;;;4989020;28;20041;-75
2022/06/24 10:39:27;;;;;;;9.13;4.40;;;;;;;;;;4992675;28;20044;-75
2022/06/24 10:42:04;;;;;;;11.05;4.22;;;;;;;;;;4974123;28;20034;-76
2022/06/24 10:44:36;;;;;;;12.10;3.85;;;;;;;;;;4975346;28;20751;-79
2022/06/24 10:47:05;;;;;;;9.23;4.07;;;;;;;;;;4993182;28;20038;-73
2022/06/24 10:49:54;;;;;;;9.63;4.15;;;;;;;;;;4991978;28;20030;-79
2022/06/24 10:52:38;;;;;;;7.63;4.47;;;;;;;;;;4987089;28;20542;-71
2022/06/24 10:55:16;;;;;;;6.55;3.85;;;;;;;;;;4990426;28;20350;-71
2022/06/24 10:58:19;;;;;;;10.55;5.10;;;;;;;;;;4992567;28;20050;-71
2022/06/24 11:00:51;;;;;;;8.53;3.90;;;;;;;;;;4973638;28;20489;-77
2022/06/24 11:03:30;;;;;;;9.32;3.65;;;;;;;;;;4974316;28;20049;-75
2022/06/24 11:05:56;;;;;;;10.98;4.40;;;;;;;;;;4977271;28;20053;-72
2022/06/24 11:08:24;;;;;;;12.30;4.47;;;;;;;;;;4973562;28;20373;-72
2022/06/24 11:10:51;;;;;;;11.95;4.45;;;;;;;;;;4974273;28;20034;-74
2022/06/24 11:13:18;;;;;;;11.10;4.57;;;;;;;;;;4973896;28;20022;-79
2022/06/24 11:15:49;;;;;;;14.80;4.88;;;;;;;;;;4973891;28;20413;-75
2022/06/24 11:18:26;;;;;;;13.10;5.30;;;;;;;;;;4973478;28;20034;-80
2022/06/24 11:20:59;;;;;;;9.10;4.70;;;;;;;;;;4973773;28;20039;-72
2022/06/24 11:23:28;;;;;;;12.05;4.82;;;;;;;;;;4972882;28;20031;-77
2022/06/24 11:26:01;;;;;;;8.80;5.05;;;;;;;;;;4973651;28;20166;-75
2022/06/24 11:28:32;;;;;;;10.25;4.70;;;;;;;;;;5001907;28;20034;-75
2022/06/24 11:31:33;;;;;;;12.20;5.13;;;;;;;;;;5012023;28;20030;-74
2022/06/24 11:34:04;;;;;;;8.95;4.85;;;;;;;;;;5011901;28;20038;-75
2022/06/24 11:36:31;;;;;;;9.38;4.88;;;;;;;;;;5013325;28;20072;-72
2022/06/24 11:39:02;;;;;;;10.93;5.40;;;;;;;;;;5013749;28;20104;-76
2022/06/24 11:41:33;;;;;;;9.88;4.90;;;;;;;;;;5013501;28;20449;-77
2022/06/24 11:43:59;;;;;;;8.77;4.78;;;;;;;;;;5013274;28;20045;-76
2022/06/24 11:46:25;;;;;;;11.90;4.75;;;;;;;;;;5013246;28;20026;-74
2022/06/24 11:49:12;;;;;;;8.77;5.03;;;;;;;;;;5013162;28;20030;-73
2022/06/24 11:51:38;;;;;;;9.35;5.05;;;;;;;;;;5013123;28;20033;-76
2022/06/24 11:54:06;;;;;;;13.48;4.93;;;;;;;;;;5013186;28;20014;-77
2022/06/24 11:56:38;;;;;;;10.68;5.00;;;;;;;;;;5013246;28;20034;-78
2022/06/24 11:59:05;;;;;;;17.77;4.13;;;;;;;;;;5012951;28;20505;-76
2022/06/24 12:01:32;;;;;;;11.05;4.45;;;;;;;;;;5013058;28;20026;-76
2022/06/24 12:04:00;;;;;;;12.95;5.50;;;;;;;;;;5012794;28;20041;-75
2022/06/24 12:06:28;;;;;;;10.73;5.10;;;;;;;;;;5012838;28;20388;-74
2022/06/24 12:08:55;;;;;;;11.15;4.90;;;;;;;;;;5012648;28;20025;-74
2022/06/24 12:11:22;;;;;;;10.63;5.50;;;;;;;;;;5013052;28;20403;-71
2022/06/24 12:14:00;;;;;;;12.68;5.20;;;;;;;;;;5012771;28;20092;-73
2022/06/24 12:16:27;;;;;;;8.98;5.10;;;;;;;;;;5011625;28;20431;-71
2022/06/24 12:18:53;;;;;;;10.70;5.07;;;;;;;;;;5012889;28;20022;-72
2022/06/24 12:21:28;;;;;;;7.85;4.80;;;;;;;;;;5013247;28;20034;-70
2022/06/24 12:23:54;;;;;;;10.45;4.50;;;;;;;;;;5009408;28;20050;-70
2022/06/24 12:26:23;;;;;;;11.57;5.32;;;;;;;;;;4992762;28;20034;-72
2022/06/24 12:29:04;;;;;;;12.20;5.68;;;;;;;;;;4990967;28;20034;-69
2022/06/24 12:31:32;;;;;;;8.52;4.57;;;;;;;;;;4992393;28;20030;-72
2022/06/24 12:33:58;;;;;;;11.52;5.63;;;;;;;;;;4992609;28;20023;-73
2022/06/24 12:36:35;;;;;;;13.02;4.97;;;;;;;;;;4992673;28;20070;-71
2022/06/24 12:39:06;;;;;;;11.45;5.40;;;;;;;;;;4992422;28;20377;-72
2022/06/24 12:42:02;;;;;;;10.38;5.50;;;;;;;;;;4992901;28;20400;-71
2022/06/24 12:44:40;;;;;;;10.52;4.95;;;;;;;;;;5000082;28;20452;-72
2022/06/24 12:52:40;;;;;;;10.30;4.70;;;;;;;;;;4992561;28;20042;-80
2022/06/24 12:55:08;;;;;;;12.60;4.70;;;;;;;;;;4992560;28;20133;-76
2022/06/24 12:57:35;;;;;;;15.10;5.75;;;;;;;;;;4991033;28;20121;-74
2022/06/24 13:00:08;;;;;;;12.55;4.82;;;;;;;;;;4992383;28;20058;-77
2022/06/24 13:02:46;;;;;;;10.68;5.40;;;;;;;;;;4992599;28;20073;-78
2022/06/24 13:05:13;;;;;;;13.43;5.25;;;;;;;;;;4992219;28;20053;-73
2022/06/24 13:07:40;;;;;;;10.05;5.10;;;;;;;;;;4992007;28;20258;-72
2022/06/24 13:10:08;;;;;;;8.80;5.60;;;;;;;;;;4991769;28;20034;-72
2022/06/24 13:12:34;;;;;;;8.40;5.00;;;;;;;;;;4992579;28;20417;-70
2022/06/24 13:15:05;;;;;;;14.18;5.47;;;;;;;;;;4992213;28;20090;-72
2022/06/24 13:17:32;;;;;;;11.35;5.88;;;;;;;;;;4992195;28;20102;-72
2022/06/24 13:19:58;;;;;;;13.57;6.22;;;;;;;;;;4992385;28;20049;-73
2022/06/24 13:22:24;;;;;;;12.07;6.40;;;;;;;;;;4992366;28;20034;-75
2022/06/24 13:24:50;;;;;;;9.43;5.25;;;;;;;;;;4991873;28;20157;-73
2022/06/24 13:27:17;;;;;;;14.00;6.72;;;;;;;;;;4991647;28;20066;-73
2022/06/24 13:29:43;;;;;;;13.18;6.32;;;;;;;;;;4991950;28;20437;-72
2022/06/24 13:32:09;;;;;;;11.32;6.68;;;;;;;;;;4992034;28;20140;-72
2022/06/24 13:34:35;;;;;;;9.25;6.03;;;;;;;;;;4991919;28;20026;-71
2022/06/24 13:37:00;;;;;;;11.90;6.90;;;;;;;;;;4992299;28;20039;-71
2022/06/24 13:39:27;;;;;;;12.38;6.90;;;;;;;;;;4992079;28;20018;-72
2022/06/24 13:41:53;;;;;;;10.23;7.18;;;;;;;;;;4993494;28;20042;-75
2022/06/24 13:44:19;;;;;;;13.40;6.60;;;;;;;;;;5013717;28;20117;-71
2022/06/24 13:46:45;;;;;;;12.00;5.70;;;;;;;;;;5014442;28;20161;-75
2022/06/24 13:49:11;;;;;;;12.13;6.40;;;;;;;;;;5014384;28;20030;-73
2022/06/24 13:51:37;;;;;;;12.93;6.00;;;;;;;;;;5015081;28;20073;-73
2022/06/24 13:54:03;;;;;;;15.95;7.68;;;;;;;;;;5015346;28;20030;-72
2022/06/24 13:56:31;;;;;;;9.73;6.32;;;;;;;;;;5015600;28;20033;-74
2022/06/24 13:58:56;;;;;;;11.43;6.72;;;;;;;;;;5015354;28;20069;-73
2022/06/24 14:01:22;;;;;;;12.98;7.30;;;;;;;;;;5015370;28;20065;-74
2022/06/24 14:03:48;;;;;;;11.45;6.70;;;;;;;;;;5015107;28;20420;-75
2022/06/24 14:06:15;;;;;;;16.17;7.70;;;;;;;;;;5015447;28;20499;-71
2022/06/24 14:08:43;;;;;;;12.52;7.78;;;;;;;;;;5015314;28;20022;-72
2022/06/24 14:11:10;;;;;;;16.88;6.88;;;;;;;;;;5014980;28;20219;-73
2022/06/24 14:13:37;;;;;;;12.32;6.93;;;;;;;;;;5015041;28;20105;-73
2022/06/24 14:16:04;;;;;;;16.35;6.95;;;;;;;;;;5014888;28;20096;-80
2022/06/24 14:18:30;;;;;;;14.05;7.57;;;;;;;;;;5015056;28;20499;-76
2022/06/24 14:20:56;;;;;;;13.82;7.97;;;;;;;;;;5014902;28;20034;-77
2022/06/24 14:26:06;;;;;;;12.57;6.35;;;;;;;;;;5015183;28;20029;-73
2022/06/24 14:28:32;;;;;;;11.27;7.32;;;;;;;;;;5014982;28;20075;-75
2022/06/24 14:30:58;;;;;;;11.77;6.82;;;;;;;;;;4992237;28;20041;-79
2022/06/24 14:33:24;;;;;;;12.45;7.28;;;;;;;;;;4995157;28;20054;-77
2022/06/24 14:35:49;;;;;;;10.77;7.10;;;;;;;;;;4995488;28;20045;-76
2022/06/24 14:41:00;;;;;;;9.75;6.70;;;;;;;;;;4995282;28;20388;-78
2022/06/24 14:43:25;;;;;;;12.80;7.07;;;;;;;;;;4995109;28;20018;-76
2022/06/24 14:45:51;;;;;;;13.43;7.60;;;;;;;;;;4995098;28;20588;-81
2022/06/24 14:48:18;;;;;;;13.25;6.90;;;;;;;;;;4994891;28;20331;-78
2022/06/24 14:50:44;;;;;;;12.75;7.10;;;;;;;;;;4994782;28;20045;-81
2022/06/24 14:53:10;;;;;;;10.60;6.93;;;;;;;;;;4994302;28;20018;-84
2022/06/24 14:55:35;;;;;;;11.40;7.05;;;;;;;;;;4994958;28;20389;-77
2022/06/24 14:58:01;;;;;;;12.50;7.10;;;;;;;;;;4993022;28;20023;-76
2022/06/24 15:00:28;;;;;;;11.15;6.93;;;;;;;;;;4985406;28;20539;-78
2022/06/24 15:02:55;;;;;;;11.15;6.55;;;;;;;;;;4994300;28;20038;-78